Portada
METAR-TAF:

METAR-TAF

Aeroports :

Txungking, Xina

latitud: 29-31N, longitud: 106-29E, altitud: 351 m

Observació

L'informe es va fer fa 12 minuts, a les 21:00 UTC
Vent 4 kt del Sud/Sud-Oest, variant entre Sud i Oest/Sud-Oest
Temperatura 26°C
Humitat 89%
Pressió 1006 hPa
Visibilitat 10 km o més
sense núvols per sota de 1500 mi sense presència de cumulonimbus.

METAR: ZUCK 142100Z 21002MPS 170V240 CAVOK 26/24 Q1006 NOSIG

Hora: 05:12 (21:12 UTC)

Pronòstic

L'informe es va fer fa 6 hores i 10 minuts, a les 15:02 UTC
Pronòstic vàlid del 14 a les 18 UTC al 15 a les 18 UTC
Vent 6 kt del Nord
Visibilitat: 6000 m
Núvols disperses a una alçada de 4000 ft
Temporalment
l' 15 a les 06 UTC al 15 a les 10 UTC
Núvols disperses a una alçada de 4000 ft
Escasses núvols a una alçada de 4000 ft, Cumulonimbus.
tempesta, pluja

TAF: ZUCK 141502Z 1418/1518 36003MPS 6000 SCT040 TX34/1508Z TN26/1421Z TEMPO 1506/1510 TSRA SCT040 FEW040CB

Observacions i pronòstics meteorològics de més de 4000 aeroports (METAR i TAF).

Les estacions disponibles són els punts grocs i vermells al mapa.

Posi el ratolí al punt desitjat per veure el nom de l'estació.

Feu clic per veure les observacions i els pronòstics meteorològics.

Per canviar el mapa: feu clic els botons verds amb una creu de color negre per apropar; al botó verd amb un guió per allunyar la imatge; o en les fletxes verdes per a mapes adjacents.


METAR-TAF: